Time;durP1;ratioP1;P1;durP2;ratioP2;P2;SDS_P1;SDS_P2;PMS_P1;PMS_P2;Temp;Humidity;BMP_temperature;BMP_pressure;BME280_temperature;BME280_humidity;BME280_pressure;Samples;Min_cycle;Max_cycle;Signal;HPM_P1;HPM_P2
2022/02/24 00:02:20;;;;;;;5.67;4.30;;;5.20;97.20;;;;;;5138212;28;20452;-45
2022/02/24 00:04:47;;;;;;;4.63;4.20;;;5.30;97.30;;;;;;5137604;28;20202;-45
2022/02/24 00:07:13;;;;;;;5.73;3.50;;;5.20;97.30;;;;;;5138464;28;20402;-45
2022/02/24 00:09:39;;;;;;;5.43;4.00;;;5.30;97.40;;;;;;5136883;28;20425;-45
2022/02/24 00:12:05;;;;;;;4.27;3.77;;;5.30;97.50;;;;;;5138530;28;20886;-45
2022/02/24 00:14:31;;;;;;;4.10;3.70;;;5.50;99.30;;;;;;5136794;27;20421;-44
2022/02/24 00:16:57;;;;;;;8.80;4.30;;;5.90;99.40;;;;;;5138535;27;20406;-45
2022/02/24 00:19:23;;;;;;;4.70;4.03;;;6.00;98.10;;;;;;5135494;28;20508;-45
2022/02/24 00:21:49;;;;;;;6.30;4.17;;;6.00;97.30;;;;;;5138663;28;20413;-45
2022/02/24 00:24:14;;;;;;;6.80;4.27;;;6.00;96.70;;;;;;5137618;28;20194;-45
2022/02/24 00:26:40;;;;;;;5.83;3.83;;;6.00;96.50;;;;;;5138948;27;20175;-45
2022/02/24 00:29:05;;;;;;;4.60;3.63;;;5.90;96.40;;;;;;5140817;27;20216;-45
2022/02/24 00:31:31;;;;;;;6.40;4.13;;;5.90;96.50;;;;;;5141957;27;20705;-44
2022/02/24 00:33:59;;;;;;;4.10;3.70;;;5.90;96.90;;;;;;5141161;27;20562;-45
2022/02/24 00:36:24;;;;;;;4.27;3.87;;;5.80;96.60;;;;;;5141989;27;20270;-45
2022/02/24 00:38:50;;;;;;;4.73;3.57;;;5.70;96.70;;;;;;5140605;27;20507;-45
2022/02/24 00:41:16;;;;;;;4.20;3.60;;;5.70;96.90;;;;;;5142191;27;20248;-45
2022/02/24 00:43:41;;;;;;;5.00;3.87;;;5.70;97.10;;;;;;5140512;27;20183;-45
2022/02/24 00:46:07;;;;;;;7.30;4.20;;;5.80;97.10;;;;;;5142022;27;20187;-45
2022/02/24 00:48:33;;;;;;;6.60;3.87;;;5.70;97.20;;;;;;5140060;27;20461;-45
2022/02/24 00:50:58;;;;;;;8.13;3.67;;;5.60;97.30;;;;;;5141251;27;20186;-45
2022/02/24 00:53:24;;;;;;;5.63;4.10;;;5.60;97.60;;;;;;5140120;27;20184;-45
2022/02/24 00:55:49;;;;;;;3.97;3.57;;;5.50;97.80;;;;;;5141604;27;20180;-45
2022/02/24 00:58:15;;;;;;;6.50;3.70;;;5.50;97.90;;;;;;5141550;27;20189;-45
2022/02/24 01:00:41;;;;;;;5.13;4.47;;;5.60;98.00;;;;;;5140315;27;20608;-45
2022/02/24 01:03:06;;;;;;;4.80;4.30;;;5.60;97.90;;;;;;5141417;27;20187;-45
2022/02/24 01:05:32;;;;;;;8.27;3.90;;;5.50;97.90;;;;;;5140437;27;20187;-45
2022/02/24 01:07:57;;;;;;;4.30;3.90;;;5.50;98.00;;;;;;5141514;27;20182;-45
2022/02/24 01:10:23;;;;;;;4.47;4.07;;;5.50;97.90;;;;;;5139540;27;20562;-45
2022/02/24 01:12:49;;;;;;;5.37;4.63;;;5.60;98.00;;;;;;5141074;27;20221;-46
2022/02/24 01:15:14;;;;;;;4.60;3.93;;;5.50;97.90;;;;;;5140180;27;20199;-46
2022/02/24 01:17:43;;;;;;;5.07;4.20;;;5.50;98.00;;;;;;5141638;27;20227;-45
2022/02/24 01:20:10;;;;;;;4.50;3.50;;;5.50;98.10;;;;;;5140140;27;20279;-46
2022/02/24 01:22:36;;;;;;;5.67;5.07;;;5.40;98.10;;;;;;5139911;27;20838;-46
2022/02/24 01:25:02;;;;;;;4.50;4.10;;;5.40;98.10;;;;;;5139968;27;20429;-45
2022/02/24 01:27:28;;;;;;;5.53;3.70;;;5.40;98.10;;;;;;5141003;27;20408;-46
2022/02/24 01:29:54;;;;;;;4.53;3.90;;;5.30;98.20;;;;;;5139507;27;20439;-46
2022/02/24 01:32:19;;;;;;;4.27;3.77;;;5.30;98.20;;;;;;5140778;27;20219;-45
2022/02/24 01:34:45;;;;;;;7.60;4.70;;;5.30;98.20;;;;;;5139160;27;20187;-46
2022/02/24 01:37:10;;;;;;;11.47;5.00;;;5.30;98.20;;;;;;5141003;27;20179;-46
2022/02/24 01:39:36;;;;;;;4.43;3.90;;;5.20;98.20;;;;;;5139809;27;20184;-46
2022/02/24 01:42:02;;;;;;;5.70;4.57;;;5.20;98.20;;;;;;5140771;27;20179;-46
2022/02/24 01:44:42;;;;;;;5.30;4.10;;;5.20;98.20;;;;;;5121387;27;20562;-46
2022/02/24 01:47:08;;;;;;;5.10;4.60;;;5.20;98.10;;;;;;5140295;27;20207;-46
2022/02/24 01:49:33;;;;;;;4.83;4.10;;;5.10;98.00;;;;;;5138526;27;20435;-46
2022/02/24 01:52:00;;;;;;;5.60;4.60;;;5.10;98.10;;;;;;5140707;27;20502;-46
2022/02/24 01:54:25;;;;;;;4.63;4.03;;;5.10;98.10;;;;;;5140396;27;20194;-46
2022/02/24 01:56:51;;;;;;;5.47;4.70;;;5.00;98.00;;;;;;5139071;27;20429;-46
2022/02/24 01:59:17;;;;;;;4.67;4.17;;;5.00;98.00;;;;;;5140311;27;20465;-46
2022/02/24 02:01:42;;;;;;;4.93;4.10;;;4.90;98.20;;;;;;5140485;27;20195;-46
2022/02/24 02:04:54;;;;;;;4.93;3.87;;;4.90;98.00;;;;;;5138834;27;20270;-46
2022/02/24 02:07:21;;;;;;;6.07;4.43;;;4.80;97.90;;;;;;5138982;27;20186;-46
2022/02/24 02:09:47;;;;;;;4.97;4.47;;;4.80;98.10;;;;;;5139879;27;20882;-46
2022/02/24 02:12:13;;;;;;;8.40;4.53;;;4.80;98.30;;;;;;5138886;27;20797;-46
2022/02/24 02:14:39;;;;;;;5.83;4.53;;;4.70;98.20;;;;;;5140344;27;20179;-46
2022/02/24 02:17:05;;;;;;;5.47;4.83;;;4.70;98.20;;;;;;5138910;27;20344;-46
2022/02/24 02:19:31;;;;;;;4.87;3.90;;;4.70;98.30;;;;;;5140193;27;20507;-45
2022/02/24 02:21:56;;;;;;;4.30;3.90;;;4.60;98.40;;;;;;5138417;27;20504;-46
2022/02/24 02:24:22;;;;;;;6.13;4.70;;;4.60;98.50;;;;;;5140157;27;20332;-46
2022/02/24 02:26:49;;;;;;;8.10;4.17;;;4.60;98.60;;;;;;5138111;27;20628;-46
2022/02/24 02:29:16;;;;;;;7.20;5.00;;;4.60;98.50;;;;;;5139975;27;20738;-46
2022/02/24 02:31:41;;;;;;;5.53;4.40;;;4.60;98.60;;;;;;5138558;27;20489;-46
2022/02/24 02:34:09;;;;;;;5.03;4.53;;;4.60;98.70;;;;;;5139125;27;20415;-46
2022/02/24 02:36:37;;;;;;;5.50;4.03;;;4.60;98.80;;;;;;5121899;27;20394;-46
2022/02/24 02:39:05;;;;;;;5.70;4.40;;;4.60;98.90;;;;;;5120718;27;20417;-46
2022/02/24 02:41:31;;;;;;;5.40;4.33;;;4.60;98.90;;;;;;5139460;27;20412;-46
2022/02/24 02:43:57;;;;;;;6.50;4.30;;;4.60;99.00;;;;;;5121285;27;20437;-46
2022/02/24 02:46:23;;;;;;;5.73;5.20;;;4.70;99.10;;;;;;5138810;27;20481;-46
2022/02/24 02:48:49;;;;;;;4.60;4.03;;;4.70;99.10;;;;;;5121375;27;20534;-46
2022/02/24 02:51:15;;;;;;;7.27;5.00;;;4.70;99.10;;;;;;5137250;27;20541;-46
2022/02/24 02:53:41;;;;;;;4.67;3.50;;;4.80;99.20;;;;;;5139382;27;20180;-46
2022/02/24 02:56:06;;;;;;;4.63;4.07;;;4.80;99.20;;;;;;5138913;27;20191;-46
2022/02/24 02:58:32;;;;;;;5.30;4.70;;;4.80;99.10;;;;;;5139458;27;20402;-46
2022/02/24 03:00:57;;;;;;;5.20;4.70;;;4.90;99.10;;;;;;5138121;27;20187;-45
2022/02/24 03:03:24;;;;;;;5.50;4.40;;;4.90;98.90;;;;;;5139461;27;20625;-46
2022/02/24 03:05:54;;;;;;;6.63;4.17;;;5.00;98.80;;;;;;5138769;27;20175;-46
2022/02/24 03:08:20;;;;;;;5.60;4.03;;;5.00;98.70;;;;;;5138080;27;20832;-46
2022/02/24 03:10:47;;;;;;;5.63;3.90;;;5.10;98.70;;;;;;5137674;27;20425;-46
2022/02/24 03:13:13;;;;;;;6.77;6.13;;;5.10;98.70;;;;;;5138794;27;20852;-46
2022/02/24 03:15:39;;;;;;;5.70;4.13;;;5.10;98.80;;;;;;5138859;27;20819;-45
2022/02/24 03:18:05;;;;;;;4.97;3.63;;;5.10;98.80;;;;;;5137338;27;20437;-46
2022/02/24 03:20:32;;;;;;;6.60;4.60;;;5.10;98.80;;;;;;5138268;27;20418;-46
2022/02/24 03:23:00;;;;;;;5.47;4.37;;;5.10;98.80;;;;;;5135935;27;20522;-46
2022/02/24 03:25:26;;;;;;;9.30;5.40;;;5.10;98.80;;;;;;5137696;27;20497;-46
2022/02/24 03:27:52;;;;;;;4.47;3.73;;;5.20;98.90;;;;;;5136781;28;20432;-46
2022/02/24 03:30:18;;;;;;;6.20;3.90;;;5.20;98.90;;;;;;5137568;28;20415;-46
2022/02/24 03:32:45;;;;;;;5.87;4.73;;;5.20;98.80;;;;;;5135593;28;20567;-46
2022/02/24 03:35:11;;;;;;;6.13;4.63;;;5.30;98.80;;;;;;5139019;28;20405;-46
2022/02/24 03:37:36;;;;;;;5.10;4.20;;;5.30;98.80;;;;;;5137642;28;20407;-46
2022/02/24 03:40:04;;;;;;;4.80;4.27;;;5.30;98.80;;;;;;5139072;28;20176;-46
2022/02/24 03:42:29;;;;;;;6.00;4.20;;;5.30;98.80;;;;;;5137500;28;20194;-46
2022/02/24 03:44:56;;;;;;;4.43;4.00;;;5.30;98.70;;;;;;5138226;28;20409;-46
2022/02/24 03:47:23;;;;;;;4.60;3.37;;;5.20;98.70;;;;;;5137737;28;20175;-46
2022/02/24 03:49:49;;;;;;;3.80;3.40;;;5.20;98.70;;;;;;5138593;28;20477;-46
2022/02/24 03:52:16;;;;;;;5.23;3.40;;;5.20;98.70;;;;;;5138725;28;20872;-46
2022/02/24 03:54:42;;;;;;;4.70;3.83;;;5.20;98.70;;;;;;5118741;28;20432;-46
2022/02/24 03:57:08;;;;;;;4.87;3.50;;;5.20;98.70;;;;;;5138711;28;20409;-46
2022/02/24 03:59:33;;;;;;;6.00;4.37;;;5.30;98.70;;;;;;5137376;28;20428;-45
2022/02/24 04:01:59;;;;;;;3.43;3.13;;;5.20;98.70;;;;;;5139780;27;20170;-50
2022/02/24 04:04:25;;;;;;;5.70;3.80;;;5.20;98.80;;;;;;5140065;27;20252;-46
2022/02/24 04:06:50;;;;;;;5.07;4.10;;;5.30;98.80;;;;;;5141916;27;20274;-46
2022/02/24 04:09:16;;;;;;;4.10;3.53;;;5.30;98.70;;;;;;5139788;27;20464;-46
2022/02/24 04:11:41;;;;;;;4.10;3.70;;;5.20;98.60;;;;;;5140695;27;20505;-46
2022/02/24 04:14:07;;;;;;;5.23;4.00;;;5.20;98.80;;;;;;5139869;27;20194;-46
2022/02/24 04:16:33;;;;;;;5.13;3.83;;;5.20;98.80;;;;;;5141042;27;20179;-46
2022/02/24 04:18:58;;;;;;;5.50;4.00;;;5.20;98.90;;;;;;5139197;27;20211;-46
2022/02/24 04:21:24;;;;;;;5.70;4.27;;;5.10;99.00;;;;;;5141040;27;20201;-46
2022/02/24 04:23:50;;;;;;;5.60;3.87;;;5.20;98.90;;;;;;5140583;27;20232;-46
2022/02/24 04:26:15;;;;;;;6.57;4.77;;;5.10;98.90;;;;;;5142030;27;20254;-46
2022/02/24 04:28:41;;;;;;;3.87;3.47;;;5.10;98.90;;;;;;5140505;27;20200;-46
2022/02/24 04:31:07;;;;;;;4.30;3.90;;;5.10;99.00;;;;;;5141949;27;20175;-46
2022/02/24 04:33:33;;;;;;;6.53;4.40;;;5.20;99.10;;;;;;5140692;27;20472;-46
2022/02/24 04:35:58;;;;;;;5.27;4.50;;;5.10;99.00;;;;;;5141756;27;20179;-46
2022/02/24 04:38:24;;;;;;;6.30;4.30;;;5.10;99.10;;;;;;5139880;27;20192;-46
2022/02/24 04:40:49;;;;;;;5.67;4.60;;;5.10;99.10;;;;;;5141054;27;20172;-46
2022/02/24 04:43:15;;;;;;;6.27;5.40;;;5.10;99.30;;;;;;5139274;27;20180;-44
2022/02/24 04:45:41;;;;;;;6.20;4.80;;;5.20;99.30;;;;;;5140776;27;20267;-45
2022/02/24 04:48:07;;;;;;;5.30;4.70;;;5.20;99.30;;;;;;5139485;27;20207;-45
2022/02/24 04:50:34;;;;;;;5.67;5.07;;;5.20;99.20;;;;;;5140752;27;20179;-46
2022/02/24 04:52:59;;;;;;;7.00;4.43;;;5.10;99.20;;;;;;5140673;27;20502;-46
2022/02/24 04:55:25;;;;;;;6.00;4.17;;;5.20;99.40;;;;;;5140441;27;20416;-45
2022/02/24 04:57:51;;;;;;;5.63;4.27;;;5.20;99.30;;;;;;5138039;27;20294;-45
2022/02/24 05:00:16;;;;;;;5.27;4.63;;;5.20;99.10;;;;;;5139025;27;20246;-46
2022/02/24 05:02:42;;;;;;;7.70;4.87;;;5.20;99.20;;;;;;5137733;27;20188;-42
2022/02/24 05:05:09;;;;;;;6.33;4.63;;;5.20;99.10;;;;;;5138212;27;20187;-42
2022/02/24 05:07:34;;;;;;;6.00;4.90;;;5.20;99.10;;;;;;5136856;27;20194;-44
2022/02/24 05:10:00;;;;;;;6.10;4.67;;;5.10;99.20;;;;;;5138108;27;20405;-43
2022/02/24 05:12:27;;;;;;;6.23;4.97;;;5.10;99.20;;;;;;5137167;27;20239;-43
2022/02/24 05:14:52;;;;;;;7.50;5.47;;;5.10;99.10;;;;;;5121517;27;20183;-42
2022/02/24 05:17:18;;;;;;;5.93;5.40;;;5.10;99.00;;;;;;5140600;27;20416;-44
2022/02/24 05:19:43;;;;;;;7.57;5.23;;;5.10;99.00;;;;;;5139269;27;20183;-43
2022/02/24 05:22:09;;;;;;;6.60;5.00;;;5.10;99.00;;;;;;5141276;27;20175;-41
2022/02/24 05:24:35;;;;;;;5.70;5.00;;;5.10;99.10;;;;;;5139279;27;20218;-44
2022/02/24 05:27:00;;;;;;;6.50;5.73;;;5.10;99.20;;;;;;5141740;27;20171;-42
2022/02/24 05:29:26;;;;;;;8.57;5.40;;;5.00;99.10;;;;;;5121555;27;20195;-42
2022/02/24 05:31:51;;;;;;;9.13;5.60;;;5.00;99.20;;;;;;5138103;27;20223;-46
2022/02/24 05:34:17;;;;;;;7.23;6.50;;;5.00;99.30;;;;;;5137732;27;20209;-43
2022/02/24 05:36:43;;;;;;;8.50;6.40;;;5.00;99.50;;;;;;5138527;27;20175;-42
2022/02/24 05:39:10;;;;;;;8.07;6.20;;;5.10;99.20;;;;;;5137504;27;20203;-45
2022/02/24 05:41:35;;;;;;;8.83;6.50;;;4.90;99.30;;;;;;5138510;27;20417;-43
2022/02/24 05:44:02;;;;;;;7.20;6.50;;;4.90;99.40;;;;;;5136548;27;20439;-43
2022/02/24 05:46:27;;;;;;;8.43;6.93;;;4.80;99.50;;;;;;5138687;27;20179;-44
2022/02/24 05:48:53;;;;;;;10.23;6.70;;;4.80;99.70;;;;;;5137738;27;20625;-43
2022/02/24 05:51:18;;;;;;;11.27;7.93;;;4.80;99.60;;;;;;5121369;27;20218;-44
2022/02/24 05:53:44;;;;;;;7.20;6.30;;;4.80;99.60;;;;;;5119415;27;20179;-43
2022/02/24 05:56:10;;;;;;;8.53;6.83;;;4.80;99.60;;;;;;5137634;27;20180;-42
2022/02/24 05:58:35;;;;;;;8.07;6.90;;;4.70;99.70;;;;;;5135809;27;20207;-45
2022/02/24 06:01:01;;;;;;;11.07;8.13;;;4.70;99.80;;;;;;5138262;27;20218;-43
2022/02/24 06:03:27;;;;;;;9.23;7.90;;;4.70;99.80;;;;;;5138356;27;20172;-43
2022/02/24 06:05:56;;;;;;;12.23;8.90;;;4.80;99.90;;;;;;5139267;27;20406;-44
2022/02/24 06:08:22;;;;;;;10.63;8.40;;;4.70;99.90;;;;;;5120814;27;20409;-41
2022/02/24 06:10:48;;;;;;;9.47;8.43;;;4.70;99.90;;;;;;5137533;27;20473;-43
2022/02/24 06:13:13;;;;;;;11.07;9.53;;;4.70;99.90;;;;;;5137052;27;20861;-43
2022/02/24 06:15:39;;;;;;;11.57;8.47;;;4.70;99.90;;;;;;5135652;27;20462;-44
2022/02/24 06:18:08;;;;;;;11.20;8.87;;;4.70;99.90;;;;;;5135962;27;20218;-43
2022/02/24 06:20:36;;;;;;;10.80;9.70;;;4.70;99.90;;;;;;5132742;27;20172;-46
2022/02/24 06:23:02;;;;;;;9.80;8.80;;;4.70;99.90;;;;;;5134396;27;20416;-43
2022/02/24 06:25:27;;;;;;;12.03;10.70;;;4.70;99.90;;;;;;5132503;27;20428;-43
2022/02/24 06:27:53;;;;;;;13.27;9.07;;;4.70;99.90;;;;;;5137026;27;20439;-43
2022/02/24 06:30:19;;;;;;;10.33;9.03;;;4.70;99.90;;;;;;5135384;27;20183;-42
2022/02/24 06:32:44;;;;;;;13.90;9.50;;;4.80;99.90;;;;;;5136393;27;20238;-42
2022/02/24 06:35:12;;;;;;;10.27;9.20;;;4.80;99.90;;;;;;5117877;27;20188;-43
2022/02/24 06:37:45;;;;;;;12.00;9.77;;;4.80;99.90;;;;;;5099372;28;20203;-42
2022/02/24 06:40:12;;;;;;;11.37;9.90;;;4.80;99.90;;;;;;5114866;28;20570;-42
2022/02/24 06:42:38;;;;;;;12.10;9.70;;;4.90;99.90;;;;;;5116071;28;20476;-42
2022/02/24 06:45:04;;;;;;;10.93;9.23;;;5.00;99.90;;;;;;5114181;28;20911;-42
2022/02/24 06:47:30;;;;;;;9.40;8.50;;;5.10;99.80;;;;;;5096988;28;20471;-42
2022/02/24 06:49:55;;;;;;;11.70;9.13;;;5.00;99.60;;;;;;5112297;28;20422;-43
2022/02/24 06:52:21;;;;;;;10.10;8.70;;;5.00;99.80;;;;;;5114686;28;20203;-41
2022/02/24 06:54:47;;;;;;;11.67;9.70;;;5.10;99.80;;;;;;5112461;28;20735;-45
2022/02/24 06:57:12;;;;;;;11.00;9.90;;;5.10;99.60;;;;;;5112311;28;20176;-46
2022/02/24 06:59:38;;;;;;;10.37;9.27;;;5.20;99.40;;;;;;5113989;28;20188;-42
2022/02/24 07:02:05;;;;;;;11.33;9.60;;;5.20;99.50;;;;;;5130688;27;20553;-44
2022/02/24 07:04:31;;;;;;;10.67;9.57;;;5.30;99.30;;;;;;5137582;27;20706;-44
2022/02/24 07:06:58;;;;;;;10.97;8.70;;;5.30;99.40;;;;;;5138962;27;20437;-44
2022/02/24 07:09:28;;;;;;;11.23;8.93;;;5.30;99.40;;;;;;5137050;27;20915;-43
2022/02/24 07:11:54;;;;;;;10.23;8.30;;;5.30;99.20;;;;;;5138960;27;20452;-44
2022/02/24 07:14:20;;;;;;;11.93;9.33;;;5.40;99.10;;;;;;5120773;27;21025;-43
2022/02/24 07:16:46;;;;;;;12.87;9.57;;;5.60;99.00;;;;;;5135801;27;20205;-45
2022/02/24 07:19:12;;;;;;;14.33;10.37;;;5.60;98.70;;;;;;5139486;27;20417;-42
2022/02/24 07:21:38;;;;;;;9.80;8.80;;;5.70;98.60;;;;;;5138505;27;20468;-42
2022/02/24 07:24:04;;;;;;;12.43;9.67;;;5.80;98.50;;;;;;5136996;27;20186;-43
2022/02/24 07:26:30;;;;;;;11.63;9.03;;;6.00;98.20;;;;;;5138045;27;20728;-43
2022/02/24 07:28:56;;;;;;;9.93;8.93;;;6.20;97.80;;;;;;5136877;27;20428;-43
2022/02/24 07:31:22;;;;;;;9.00;8.10;;;6.30;97.60;;;;;;5138708;28;20491;-43
2022/02/24 07:33:48;;;;;;;8.87;7.97;;;6.30;97.40;;;;;;5136836;28;20206;-43
2022/02/24 07:36:14;;;;;;;10.93;9.37;;;6.40;97.40;;;;;;5140196;27;20413;-42
2022/02/24 07:38:39;;;;;;;10.17;9.07;;;6.60;97.10;;;;;;5140551;27;20438;-42
2022/02/24 07:41:05;;;;;;;10.30;9.23;;;6.60;96.90;;;;;;5142671;27;20438;-45
2022/02/24 07:43:32;;;;;;;8.70;7.80;;;6.80;96.80;;;;;;5138872;27;20279;-42
2022/02/24 07:45:58;;;;;;;11.30;7.90;;;6.90;96.70;;;;;;5141387;27;20225;-44
2022/02/24 07:48:24;;;;;;;9.50;7.90;;;6.90;96.20;;;;;;5121958;27;20469;-45
2022/02/24 07:50:49;;;;;;;11.00;8.13;;;7.00;96.20;;;;;;5142981;27;20416;-43
2022/02/24 07:53:15;;;;;;;10.00;8.10;;;7.00;95.80;;;;;;5142751;27;20206;-44
2022/02/24 07:55:41;;;;;;;11.50;10.00;;;7.20;96.10;;;;;;5142623;27;20175;-42
2022/02/24 07:58:07;;;;;;;10.37;8.30;;;7.40;95.50;;;;;;5140218;27;20607;-42
2022/02/24 08:00:33;;;;;;;11.93;7.93;;;7.60;95.00;;;;;;5139146;27;20512;-46
2022/02/24 08:02:58;;;;;;;9.47;8.00;;;7.70;94.50;;;;;;5139060;27;20909;-42
2022/02/24 08:05:24;;;;;;;8.93;6.83;;;8.00;93.90;;;;;;5141820;27;20420;-43
2022/02/24 08:07:50;;;;;;;8.30;7.50;;;8.20;93.80;;;;;;5140737;27;20263;-44
2022/02/24 08:10:16;;;;;;;8.50;7.67;;;8.60;93.20;;;;;;5140314;27;20198;-42
2022/02/24 08:12:42;;;;;;;8.70;7.80;;;8.70;92.70;;;;;;5136441;27;20508;-41
2022/02/24 08:15:09;;;;;;;8.20;6.60;;;9.60;91.90;;;;;;5136088;27;20415;-42
2022/02/24 08:17:34;;;;;;;8.60;7.20;;;9.60;90.60;;;;;;5135056;27;20408;-42
2022/02/24 08:20:01;;;;;;;7.27;6.53;;;10.00;89.80;;;;;;5137114;27;20413;-43
2022/02/24 08:22:26;;;;;;;7.33;6.40;;;10.60;87.20;;;;;;5135055;27;20219;-44
2022/02/24 08:24:52;;;;;;;6.90;6.20;;;10.30;85.70;;;;;;5117562;27;20513;-44
2022/02/24 08:27:18;;;;;;;8.67;6.33;;;10.40;86.10;;;;;;5136949;27;20577;-46
2022/02/24 08:29:44;;;;;;;7.83;6.03;;;10.90;85.50;;;;;;5134547;27;20202;-46
2022/02/24 08:32:09;;;;;;;8.73;6.37;;;11.40;83.80;;;;;;5135155;27;20231;-44
2022/02/24 08:34:35;;;;;;;7.40;5.13;;;11.50;82.90;;;;;;5135576;27;20180;-43
2022/02/24 08:37:01;;;;;;;6.57;5.97;;;11.70;84.10;;;;;;5137250;27;20194;-44
2022/02/24 08:39:26;;;;;;;6.47;5.50;;;12.00;82.10;;;;;;5136970;27;20186;-46
2022/02/24 08:41:52;;;;;;;6.07;5.47;;;12.80;80.60;;;;;;5134591;27;20215;-45
2022/02/24 08:44:18;;;;;;;6.20;5.60;;;13.10;76.90;;;;;;5136513;27;20259;-43
2022/02/24 08:46:44;;;;;;;7.17;5.20;;;13.60;75.10;;;;;;5128084;27;20187;-46
2022/02/24 08:49:13;;;;;;;7.13;5.90;;;13.70;73.50;;;;;;5117125;28;20419;-44
2022/02/24 08:51:39;;;;;;;6.23;5.63;;;13.50;73.50;;;;;;5115465;28;21265;-41
2022/02/24 08:54:05;;;;;;;5.50;5.00;;;13.90;71.90;;;;;;5116679;28;20693;-42
2022/02/24 08:56:31;;;;;;;5.50;5.00;;;14.80;69.40;;;;;;5116968;28;20425;-42
2022/02/24 08:58:57;;;;;;;5.60;5.10;;;15.80;66.40;;;;;;5117691;28;20566;-42
2022/02/24 09:01:22;;;;;;;5.30;4.80;;;16.10;62.20;;;;;;5124759;27;20542;-44
2022/02/24 09:03:48;;;;;;;6.40;4.23;;;16.50;62.00;;;;;;5139616;27;20182;-42
2022/02/24 09:06:16;;;;;;;7.70;4.93;;;17.00;59.10;;;;;;5137317;27;20175;-43
2022/02/24 09:08:43;;;;;;;4.43;3.90;;;17.60;56.90;;;;;;5122147;27;20243;-43
2022/02/24 09:11:09;;;;;;;6.00;4.33;;;17.40;56.40;;;;;;5139124;27;20918;-45
2022/02/24 09:13:34;;;;;;;4.13;3.77;;;18.30;54.70;;;;;;5137075;27;20478;-46
2022/02/24 09:16:00;;;;;;;4.07;3.70;;;16.80;54.00;;;;;;5139474;27;20820;-43
2022/02/24 09:18:26;;;;;;;5.20;3.97;;;15.20;57.30;;;;;;5137997;27;20579;-43
2022/02/24 09:20:51;;;;;;;6.07;4.07;;;14.60;58.00;;;;;;5140195;27;20472;-42
2022/02/24 09:23:18;;;;;;;7.70;4.10;;;13.90;59.90;;;;;;5141003;27;20218;-43
2022/02/24 09:25:43;;;;;;;6.27;3.97;;;13.70;61.40;;;;;;5139971;27;20180;-42
2022/02/24 09:28:09;;;;;;;4.13;3.50;;;13.40;61.80;;;;;;5138438;27;20417;-42
2022/02/24 09:30:35;;;;;;;5.60;3.80;;;12.80;63.20;;;;;;5140078;27;20179;-42
2022/02/24 09:33:01;;;;;;;4.23;3.43;;;12.50;65.60;;;;;;5141115;27;20617;-43
2022/02/24 09:35:27;;;;;;;6.07;4.30;;;12.30;66.60;;;;;;5138900;27;20605;-44
2022/02/24 09:37:52;;;;;;;5.00;3.73;;;12.20;67.40;;;;;;5139814;27;20617;-42
2022/02/24 09:40:18;;;;;;;6.67;3.77;;;12.40;67.70;;;;;;5138063;27;20757;-42
2022/02/24 09:42:44;;;;;;;3.40;3.10;;;13.10;66.90;;;;;;5140571;27;20207;-43
2022/02/24 09:45:10;;;;;;;5.23;3.40;;;13.10;66.20;;;;;;5136912;27;20592;-44
2022/02/24 09:47:37;;;;;;;5.23;3.63;;;13.50;64.90;;;;;;5137829;27;20456;-43
2022/02/24 09:50:04;;;;;;;4.63;3.47;;;13.30;64.70;;;;;;5137358;27;20429;-44
2022/02/24 09:52:29;;;;;;;4.27;3.50;;;13.30;65.60;;;;;;5138778;27;20514;-44
2022/02/24 09:54:55;;;;;;;5.30;3.40;;;13.40;64.90;;;;;;5139280;27;20516;-46
2022/02/24 09:57:21;;;;;;;4.07;3.40;;;13.10;65.40;;;;;;5140432;27;20183;-46
2022/02/24 09:59:46;;;;;;;5.37;3.47;;;13.70;65.00;;;;;;5120223;27;20196;-43
2022/02/24 10:02:13;;;;;;;4.70;2.80;;;14.60;63.50;;;;;;5138079;27;20218;-43
2022/02/24 10:05:17;;;;;;;3.50;2.90;;;15.40;61.40;;;;;;5136325;27;20217;-42
2022/02/24 10:07:43;;;;;;;4.67;3.27;;;16.30;59.70;;;;;;5140482;27;20519;-46
2022/02/24 10:10:27;;;;;;;3.90;3.30;;;17.30;57.30;;;;;;5137097;27;20446;-43
2022/02/24 10:12:58;;;;;;;4.20;3.40;;;17.00;56.10;;;;;;5119446;27;20421;-44
2022/02/24 10:15:24;;;;;;;4.20;3.43;;;17.60;54.80;;;;;;5135103;27;20491;-42
2022/02/24 10:18:15;;;;;;;3.97;3.50;;;16.90;54.80;;;;;;5137197;27;20757;-45
2022/02/24 10:20:50;;;;;;;3.90;2.67;;;16.70;56.00;;;;;;5135325;27;20184;-43
2022/02/24 10:23:18;;;;;;;6.00;3.50;;;17.10;55.40;;;;;;5137508;27;20454;-43
2022/02/24 10:25:44;;;;;;;5.93;3.50;;;16.80;54.30;;;;;;5135347;27;20421;-47
2022/02/24 10:28:30;;;;;;;2.87;2.60;;;16.90;54.70;;;;;;5136613;27;20501;-43
2022/02/24 10:30:56;;;;;;;4.50;3.17;;;16.40;55.10;;;;;;5137483;27;20417;-46
2022/02/24 10:33:27;;;;;;;3.90;2.70;;;16.40;54.90;;;;;;5138256;27;20928;-45
2022/02/24 10:35:53;;;;;;;3.87;2.87;;;16.30;54.70;;;;;;5135096;27;20424;-44
2022/02/24 10:38:18;;;;;;;4.63;2.43;;;16.80;55.10;;;;;;5117758;27;20400;-43
2022/02/24 10:40:46;;;;;;;5.23;3.33;;;16.70;54.30;;;;;;5136212;27;20448;-43
2022/02/24 10:43:26;;;;;;;3.70;3.20;;;16.70;54.20;;;;;;5136727;27;20218;-44
2022/02/24 10:46:07;;;;;;;5.00;2.73;;;16.80;54.20;;;;;;5136445;27;20992;-44
2022/02/24 10:48:45;;;;;;;3.60;2.57;;;16.50;54.20;;;;;;5136511;27;20418;-44
2022/02/24 10:51:11;;;;;;;3.30;2.73;;;17.20;53.90;;;;;;5136137;27;20417;-44
2022/02/24 10:53:37;;;;;;;3.50;2.40;;;16.80;53.40;;;;;;5137674;27;20907;-43
2022/02/24 10:56:08;;;;;;;3.80;2.87;;;17.20;53.70;;;;;;5135695;27;20187;-41
2022/02/24 10:58:40;;;;;;;4.07;2.30;;;16.90;53.70;;;;;;5135774;27;20184;-43
2022/02/24 11:01:17;;;;;;;2.17;1.70;;;17.10;52.70;;;;;;5117392;27;20801;-43
2022/02/24 11:03:48;;;;;;;2.60;1.80;;;17.60;53.10;;;;;;5136953;27;20458;-44
2022/02/24 11:06:14;;;;;;;4.03;2.13;;;18.50;50.90;;;;;;5115720;27;20987;-44
2022/02/24 11:08:42;;;;;;;3.87;2.23;;;18.80;50.90;;;;;;5118850;27;20523;-44
2022/02/24 11:11:08;;;;;;;4.80;2.33;;;19.10;50.30;;;;;;5133569;27;20561;-42
2022/02/24 11:13:35;;;;;;;3.00;2.07;;;18.60;49.10;;;;;;5136168;27;20496;-44
2022/02/24 11:16:01;;;;;;;2.80;1.53;;;19.20;49.20;;;;;;5137013;27;20924;-46
2022/02/24 11:18:27;;;;;;;2.87;1.50;;;19.60;47.70;;;;;;5137329;27;20727;-46
2022/02/24 11:20:55;;;;;;;3.80;2.43;;;19.60;47.10;;;;;;5136466;27;20425;-44
2022/02/24 11:23:22;;;;;;;3.30;2.00;;;19.60;46.60;;;;;;5117016;27;20484;-43
2022/02/24 11:26:19;;;;;;;5.73;2.57;;;19.30;46.20;;;;;;5138243;27;20409;-43
2022/02/24 11:29:02;;;;;;;3.47;1.90;;;18.80;45.60;;;;;;5117649;28;20421;-47
2022/02/24 11:31:35;;;;;;;3.80;2.27;;;17.60;47.00;;;;;;5118629;28;20416;-43
2022/02/24 11:34:00;;;;;;;2.63;1.77;;;17.60;46.70;;;;;;5135915;27;20424;-46
2022/02/24 11:36:41;;;;;;;2.20;1.43;;;17.10;46.40;;;;;;5137955;28;20413;-43
2022/02/24 11:39:11;;;;;;;3.63;1.80;;;17.00;46.40;;;;;;5135914;28;20184;-43
2022/02/24 11:41:54;;;;;;;2.40;2.00;;;17.30;46.60;;;;;;5135802;28;20475;-44
2022/02/24 11:44:30;;;;;;;4.47;2.00;;;17.30;45.50;;;;;;5117567;28;20710;-43
2022/02/24 11:47:04;;;;;;;4.40;1.77;;;17.00;45.60;;;;;;5134532;28;20416;-44
2022/02/24 11:49:55;;;;;;;2.77;1.70;;;17.10;46.70;;;;;;5134501;28;20897;-45
2022/02/24 11:52:24;;;;;;;5.57;1.70;;;17.60;45.60;;;;;;5135544;28;20401;-44
2022/02/24 11:54:51;;;;;;;4.50;1.97;;;17.00;45.30;;;;;;5134623;28;20693;-46
2022/02/24 11:57:39;;;;;;;4.30;1.90;;;16.30;45.80;;;;;;5117995;28;20436;-43
2022/02/24 12:00:13;;;;;;;5.37;2.10;;;16.30;46.80;;;;;;5134264;28;20428;-43
2022/02/24 12:02:41;;;;;;;3.50;2.27;;;16.20;46.50;;;;;;5118105;28;20469;-43
2022/02/24 12:05:19;;;;;;;3.63;1.93;;;16.20;46.70;;;;;;5133019;28;20463;-45
2022/02/24 12:08:10;;;;;;;3.77;1.90;;;15.30;47.20;;;;;;5135326;28;20402;-42
2022/02/24 12:10:43;;;;;;;5.27;2.73;;;15.10;47.90;;;;;;5115280;28;20516;-42
2022/02/24 12:13:27;;;;;;;3.50;1.77;;;14.70;48.30;;;;;;5133992;28;20529;-42
2022/02/24 12:16:14;;;;;;;5.30;2.17;;;14.30;48.50;;;;;;5133106;28;20431;-44
2022/02/24 12:18:41;;;;;;;4.10;2.37;;;14.10;49.00;;;;;;5133080;28;20397;-45
2022/02/24 12:21:33;;;;;;;7.67;2.87;;;14.10;49.50;;;;;;5131307;28;20689;-42
2022/02/24 12:24:02;;;;;;;4.60;1.67;;;13.80;49.30;;;;;;5134016;27;20436;-43
2022/02/24 12:26:47;;;;;;;3.97;1.87;;;13.80;49.60;;;;;;5136418;27;20846;-48
2022/02/24 12:29:28;;;;;;;4.03;1.77;;;13.80;50.30;;;;;;5138173;27;20717;-46
2022/02/24 12:31:59;;;;;;;2.23;1.50;;;13.60;50.10;;;;;;5137277;27;20904;-44
2022/02/24 12:34:25;;;;;;;5.87;1.90;;;13.40;50.50;;;;;;5118710;27;20405;-46
2022/02/24 12:36:51;;;;;;;3.47;1.87;;;13.30;50.70;;;;;;5137897;27;20412;-47
2022/02/24 12:39:18;;;;;;;2.80;1.70;;;13.10;50.90;;;;;;5139484;27;20461;-42
2022/02/24 12:41:43;;;;;;;3.17;1.80;;;13.00;51.30;;;;;;5104282;27;20537;-44
2022/02/24 12:44:21;;;;;;;5.33;1.70;;;13.00;51.60;;;;;;5121691;27;20829;-45
2022/02/24 12:46:47;;;;;;;5.03;2.20;;;13.10;51.80;;;;;;5135557;27;20579;-45
2022/02/24 12:49:14;;;;;;;4.80;2.00;;;13.10;51.70;;;;;;5126578;27;20489;-46
2022/02/24 12:51:40;;;;;;;3.93;1.70;;;13.10;51.70;;;;;;5128303;27;20202;-44
2022/02/24 12:54:09;;;;;;;5.23;1.67;;;13.10;52.00;;;;;;5138346;27;20797;-45
2022/02/24 12:56:38;;;;;;;3.00;1.90;;;13.10;52.20;;;;;;5116848;27;20207;-42